Katy, TX

2:19 PM CDT on August 04, 2015 (GMT -0500)
Houston | | Change Station
CLOSE
Current Station
Airport
Location: Houston,
Elevation: 167 ft
Nearby Weather Stations

Elev 167 ft 29.81 °N, 95.90 °W | Updated 4 minutes ago

Partly Cloudy
Partly Cloudy
84 °F
Feels Like 92 °F
N
4
Wind Variable Wind from ENE

Today
High -- | Low -- °F
--% Chance of Precip.
Yesterday
High -- | Low -- °F
Precip. -- in
6:44 AM 8:14 PM
Waning Gibbous, 75% visible
Pressure 29.97 in
Visibility 10.0 miles
Clouds Few 7500 ft
Heat Index 92 °F
Dew Point 75 °F
Humidity 74%
Rainfall 0.00 in
Snow Depth Not available.
UV 11 out of 12
Pollen 3.30 out of 12
Air Quality Not available.
Flu Activity Not available.
METAR KTME 041915Z AUTO 06003KT 10SM FEW075 29/24 A2997 RMK AO2

More Conditions Fewer Conditions

Pressure 29.97 in
Visibility 10.0 miles
Clouds Few 7500 ft
Heat Index 92 °F
Dew Point 75 °F
Humidity 74%
Rainfall 0.00 in
Snow Depth Not available.
UV 11 out of 12
Pollen 3.30 out of 12
Air Quality Not available.
Flu Activity Not available.
METAR KTME 041915Z AUTO 06003KT 10SM FEW075 29/24 A2997 RMK AO2

More Conditions Fewer Conditions

10-Day Weather Forecast

×

Almanac

Astronomy

Aug. 04, 2015 Rise Set
Actual Time
Civil Twilight
Nautical Twilight
Astronomical Twilight
Moon
Length of Visible Light
Length of Day
Tomorrow will be .
, % of the Moon is Illuminated

Today's Extremes

State Highs State Lows

Community

WunderPhotos

Upload Photos

1,843,954 photos uploaded!

WunderBlogs® & News

Nearby

Air Quality

  Air Quality AQ Index Pollutant
Not available.

Snow Depth

Station Depth Elevation

Earthquake Activity

City Distance Mag. Time & Date
Minimum magnitude displayed is 2.5.

Coastal Water Temperatures

Place Temperature

Stations

Nearby Weather Stations

Station Location Temp. Windchill Dew Point Humidity Wind Precip. Elev Updated Type